Time;durP1;ratioP1;P1;durP2;ratioP2;P2;SDS_P1;SDS_P2;PMS_P1;PMS_P2;Temp;Humidity;BMP_temperature;BMP_pressure;BME280_temperature;BME280_humidity;BME280_pressure;Samples;Min_cycle;Max_cycle;Signal;HPM_P1;HPM_P2
2022/10/04 00:02:00;;;;;;;24.92;7.43;;;;;;;8.81;100.00;100579.25;12189614;19;20014;-87
2022/10/04 00:06:05;;;;;;;18.55;7.35;;;;;;;8.81;100.00;100584.75;12215531;19;20014;-86
2022/10/04 00:10:18;;;;;;;19.70;7.50;;;;;;;8.81;100.00;100585.59;12189005;19;20391;-86
2022/10/04 00:14:31;;;;;;;19.23;7.47;;;;;;;8.82;100.00;100586.44;12215571;19;20081;-84
2022/10/04 00:18:40;;;;;;;21.38;8.65;;;;;;;8.82;100.00;100569.94;12213461;19;20041;-83
2022/10/04 00:23:20;;;;;;;24.17;7.65;;;;;;;8.84;100.00;100574.16;12190498;19;20006;-84
2022/10/04 00:27:25;;;;;;;20.27;7.45;;;;;;;8.85;100.00;100575.00;12212720;19;20031;-83
2022/10/04 00:31:27;;;;;;;26.92;8.40;;;;;;;8.85;100.00;100577.75;12186406;19;20037;-84
2022/10/04 00:35:29;;;;;;;;;;;;;;;8.76;100.00;100571.66;12210255;19;20010;-83
2022/10/04 00:39:31;;;;;;;20.77;6.63;;;;;;;8.71;100.00;100562.38;12209492;19;20224;-83
2022/10/04 00:43:41;;;;;;;19.73;8.25;;;;;;;8.66;100.00;100574.03;12187577;19;20399;-83
2022/10/04 00:47:43;;;;;;;18.50;6.68;;;;;;;8.62;100.00;100564.53;12210153;19;20656;-83
2022/10/04 00:52:00;;;;;;;16.95;7.25;;;;;;;8.59;100.00;100573.22;12207996;19;20007;-83
2022/10/04 00:56:06;;;;;;;20.52;7.93;;;;;;;8.59;100.00;100564.97;12190433;19;20011;-83
2022/10/04 01:00:20;;;;;;;16.55;7.40;;;;;;;8.57;100.00;100551.47;12207641;19;20034;-83
2022/10/04 01:04:48;;;;;;;22.23;8.13;;;;;;;8.60;100.00;100547.44;12185503;19;20085;-82
2022/10/04 01:08:53;;;;;;;21.73;8.30;;;;;;;8.62;100.00;100550.78;12209454;19;20007;-82
2022/10/04 01:13:16;;;;;;;19.27;8.13;;;;;;;8.62;100.00;100542.56;12216172;19;20010;-81
2022/10/04 01:17:18;;;;;;;;;;;;;;;8.61;100.00;100536.22;12205890;19;20029;-82
2022/10/04 01:21:23;;;;;;;22.42;7.88;;;;;;;8.57;100.00;100543.22;12226640;19;19911;-82
2022/10/04 01:25:48;;;;;;;24.63;8.25;;;;;;;8.51;100.00;100554.25;12198621;19;20033;-82
2022/10/04 01:29:50;;;;;;;23.13;8.73;;;;;;;8.43;100.00;100538.84;12225794;19;20030;-81
2022/10/04 01:33:53;;;;;;;18.58;7.88;;;;;;;8.36;100.00;100538.84;12224903;19;20478;-82
2022/10/04 01:37:55;;;;;;;20.90;7.95;;;;;;;8.32;100.00;100537.59;12210332;19;20520;-81
2022/10/04 01:42:04;;;;;;;27.58;8.30;;;;;;;8.29;100.00;100527.03;12228615;19;20010;-81
2022/10/04 01:46:11;;;;;;;22.10;8.05;;;;;;;8.28;100.00;100530.00;12208670;19;20031;-81
2022/10/04 01:50:41;;;;;;;19.08;7.70;;;;;;;8.27;100.00;100523.69;12225155;19;20026;-81
2022/10/04 01:54:48;;;;;;;20.92;7.57;;;;;;;8.27;100.00;100514.59;12224904;19;20727;-81
2022/10/04 01:58:58;;;;;;;18.75;7.80;;;;;;;8.27;100.00;100500.84;12201400;19;20014;-82
2022/10/04 02:03:07;;;;;;;19.60;7.25;;;;;;;8.23;100.00;100498.53;12223757;19;19998;-81
2022/10/04 02:07:14;;;;;;;23.92;7.63;;;;;;;8.21;100.00;100491.63;12205784;19;20070;-81
2022/10/04 02:11:19;;;;;;;18.98;7.22;;;;;;;8.11;100.00;100478.31;12218618;19;20026;-81
2022/10/04 02:15:25;;;;;;;21.55;7.18;;;;;;;8.09;100.00;100480.47;12223978;19;20367;-81
2022/10/04 02:19:34;;;;;;;22.88;8.23;;;;;;;8.11;100.00;100486.56;12202908;19;20010;-81
2022/10/04 02:23:46;;;;;;;18.75;6.95;;;;;;;8.10;100.00;100490.38;12250420;19;19998;-81
2022/10/04 02:27:54;;;;;;;22.67;6.88;;;;;;;8.13;100.00;100486.34;12269767;19;20007;-81
2022/10/04 02:36:17;;;;;;;17.65;6.70;;;;;;;8.15;100.00;100482.34;12226956;19;20021;-82
2022/10/04 02:40:25;;;;;;;21.30;6.78;;;;;;;8.16;100.00;100483.19;12199705;19;20085;-82
2022/10/04 02:44:39;;;;;;;20.65;6.70;;;;;;;8.14;100.00;100474.31;12220886;19;20007;-82
2022/10/04 02:48:55;;;;;;;20.30;7.13;;;;;;;8.12;100.00;100477.28;12223815;19;20007;-82
2022/10/04 02:53:10;;;;;;;21.40;6.55;;;;;;;8.13;100.00;100476.22;12199073;19;20558;-82
2022/10/04 02:57:19;;;;;;;27.15;6.90;;;;;;;8.13;100.00;100462.50;12219772;19;20046;-81
2022/10/04 03:01:26;;;;;;;15.60;6.43;;;;;;;8.09;100.00;100458.50;12194544;19;20115;-82
2022/10/04 03:05:28;;;;;;;19.17;6.60;;;;;;;8.06;100.00;100456.19;12215754;19;20003;-81
2022/10/04 03:09:31;;;;;;;15.80;6.47;;;;;;;7.95;100.00;100459.63;12218945;19;20002;-81
2022/10/04 03:13:33;;;;;;;25.93;6.10;;;;;;;7.85;100.00;100464.69;12196833;19;20003;-82
2022/10/04 03:17:35;;;;;;;18.23;6.03;;;;;;;7.79;100.00;100460.06;12219253;19;20304;-81
2022/10/04 03:21:39;;;;;;;18.83;6.50;;;;;;;7.81;100.00;100468.94;12217735;19;20639;-80
2022/10/04 03:26:02;;;;;;;20.40;6.63;;;;;;;7.79;100.00;100460.91;12198213;19;20106;-81
2022/10/04 03:30:04;;;;;;;14.43;5.70;;;;;;;7.75;100.00;100465.16;12214536;19;20467;-81
2022/10/04 03:34:13;;;;;;;14.50;5.93;;;;;;;7.71;100.00;100461.16;12194805;19;20472;-81
2022/10/04 03:38:18;;;;;;;18.52;6.28;;;;;;;7.68;100.00;100453.38;12221778;19;20014;-82
2022/10/04 03:42:22;;;;;;;;;;;;;;;7.67;100.00;100460.72;12218348;19;20462;-80
2022/10/04 03:46:24;;;;;;;12.18;5.45;;;;;;;7.67;100.00;100458.00;12198567;19;19919;-81
2022/10/04 03:50:33;;;;;;;12.70;5.90;;;;;;;7.62;100.00;100462.47;12215165;19;20361;-80
2022/10/04 03:54:35;;;;;;;20.33;6.25;;;;;;;7.60;100.00;100457.19;12215287;19;20263;-80
2022/10/04 03:58:37;;;;;;;22.02;7.68;;;;;;;7.59;100.00;100466.47;12196441;19;20010;-81
2022/10/04 04:02:47;;;;;;;14.23;5.72;;;;;;;7.57;100.00;100465.00;12214881;19;20014;-81
2022/10/04 04:06:51;;;;;;;18.50;5.80;;;;;;;7.60;100.00;100468.16;12213047;19;20037;-81
2022/10/04 04:10:57;;;;;;;14.02;5.60;;;;;;;7.64;100.00;100450.19;12191142;19;20456;-80
2022/10/04 04:15:00;;;;;;;16.85;6.72;;;;;;;7.71;100.00;100458.44;12218566;19;20560;-81
2022/10/04 04:19:09;;;;;;;17.35;5.57;;;;;;;7.76;100.00;100444.88;12197915;19;20352;-82
2022/10/04 04:23:24;;;;;;;15.60;5.75;;;;;;;7.81;100.00;100434.13;12215082;19;20436;-82
2022/10/04 04:27:35;;;;;;;15.02;5.88;;;;;;;7.89;100.00;100433.88;12219356;19;20558;-82
2022/10/04 04:31:44;;;;;;;23.58;6.68;;;;;;;7.98;100.00;100426.25;12192629;19;20003;-82
2022/10/04 04:35:46;;;;;;;15.15;5.63;;;;;;;7.95;100.00;100449.47;12214865;19;20017;-81
2022/10/04 04:39:53;;;;;;;13.50;6.15;;;;;;;7.92;100.00;100446.31;12213453;19;20011;-81
2022/10/04 04:43:55;;;;;;;18.90;6.60;;;;;;;7.90;100.00;100446.53;12196278;19;20010;-82
2022/10/04 04:47:58;;;;;;;17.92;5.78;;;;;;;7.93;100.00;100437.88;12217661;19;20010;-82
2022/10/04 04:52:00;;;;;;;18.05;6.10;;;;;;;7.95;100.00;100432.16;12193712;19;20081;-80
2022/10/04 04:56:05;;;;;;;21.17;6.88;;;;;;;7.85;100.00;100437.25;12219497;19;20030;-82
2022/10/04 05:00:22;;;;;;;13.55;5.38;;;;;;;7.80;100.00;100424.22;12206104;19;20042;-81
2022/10/04 05:04:25;;;;;;;13.30;5.80;;;;;;;7.75;100.00;100443.22;12164327;19;20037;-81
2022/10/04 05:08:28;;;;;;;13.73;5.82;;;;;;;7.71;100.00;100442.81;12217445;19;20054;-81
2022/10/04 05:12:30;;;;;;;14.55;5.45;;;;;;;7.69;100.00;100438.59;12213120;19;20030;-82
2022/10/04 05:16:45;;;;;;;10.35;4.15;;;;;;;7.69;100.00;100435.84;12198051;19;20222;-82
2022/10/04 05:20:52;;;;;;;13.18;5.40;;;;;;;7.67;100.00;100436.03;12215974;19;20006;-80
2022/10/04 05:24:58;;;;;;;18.85;6.28;;;;;;;7.67;100.00;100430.56;12214908;19;20018;-79
2022/10/04 05:29:09;;;;;;;17.67;5.43;;;;;;;7.66;100.00;100423.41;12199803;19;20011;-80
2022/10/04 05:33:16;;;;;;;16.08;5.47;;;;;;;7.65;100.00;100437.34;12209732;19;20486;-82
2022/10/04 05:37:42;;;;;;;17.23;5.93;;;;;;;7.62;100.00;100438.63;12195135;19;20132;-81
2022/10/04 05:42:10;;;;;;;13.82;6.10;;;;;;;7.59;100.00;100433.56;12213849;19;20034;-82
2022/10/04 05:46:32;;;;;;;18.08;6.22;;;;;;;7.60;100.00;100443.47;12196493;19;20013;-81
2022/10/04 05:50:40;;;;;;;17.25;6.72;;;;;;;7.62;100.00;100444.09;12216802;19;20069;-81
2022/10/04 05:54:42;;;;;;;11.98;6.15;;;;;;;7.70;100.00;100446.63;12216444;19;20003;-81
2022/10/04 05:59:13;;;;;;;18.85;6.43;;;;;;;7.78;100.00;100458.41;12199858;19;20010;-82
2022/10/04 06:04:07;;;;;;;14.13;6.28;;;;;;;7.83;100.00;100453.97;12230041;19;20357;-80
2022/10/04 06:08:18;;;;;;;17.05;6.70;;;;;;;7.90;100.00;100473.13;12205961;19;20007;-80
2022/10/04 06:12:54;;;;;;;13.65;6.45;;;;;;;7.92;100.00;100458.13;12222544;19;20007;-80
2022/10/04 06:17:14;;;;;;;14.80;6.07;;;;;;;8.04;100.00;100463.81;12199899;19;20011;-82
2022/10/04 06:21:24;;;;;;;16.15;6.85;;;;;;;8.17;100.00;100463.72;12245821;19;20007;-78
2022/10/04 06:25:56;;;;;;;22.88;8.15;;;;;;;8.23;100.00;100460.09;12245605;19;20011;-79
2022/10/04 06:30:03;;;;;;;23.27;9.55;;;;;;;8.34;100.00;100469.56;12252861;19;20010;-81
2022/10/04 06:34:16;;;;;;;29.05;10.85;;;;;;;8.43;100.00;100470.19;12203490;19;20007;-81
2022/10/04 06:38:32;;;;;;;29.08;11.00;;;;;;;8.50;100.00;100457.25;12227347;19;20011;-80
2022/10/04 06:42:47;;;;;;;24.33;9.70;;;;;;;8.57;100.00;100473.72;12225965;19;20026;-81
2022/10/04 06:46:55;;;;;;;21.20;8.93;;;;;;;8.58;100.00;100470.72;12207291;19;20060;-81
2022/10/04 06:51:08;;;;;;;21.48;9.07;;;;;;;8.57;100.00;100469.06;12227720;19;20011;-82
2022/10/04 06:55:16;;;;;;;;;;;;;;;8.56;100.00;100486.59;12205111;19;20035;-79
2022/10/04 06:59:38;;;;;;;20.52;8.73;;;;;;;8.59;100.00;100477.91;12260353;19;19907;-78
2022/10/04 07:03:51;;;;;;;21.13;9.33;;;;;;;8.64;100.00;100480.00;12231296;19;20044;-81
2022/10/04 07:08:05;;;;;;;18.52;7.30;;;;;;;8.74;100.00;100485.00;12209777;19;20011;-81
2022/10/04 07:12:15;;;;;;;14.77;7.72;;;;;;;8.86;100.00;100472.22;12223665;19;20007;-80
2022/10/04 07:16:44;;;;;;;15.55;7.68;;;;;;;8.95;100.00;100487.38;12201100;19;20010;-80
2022/10/04 07:20:48;;;;;;;18.13;7.10;;;;;;;9.00;100.00;100489.47;12227940;19;20034;-81
2022/10/04 07:25:14;;;;;;;14.38;7.03;;;;;;;9.02;100.00;100476.38;12226397;19;20021;-82
2022/10/04 07:29:30;;;;;;;17.42;8.15;;;;;;;9.09;100.00;100483.47;12207215;19;20605;-81
2022/10/04 07:33:41;;;;;;;22.52;10.15;;;;;;;9.23;100.00;100477.88;12262975;19;20023;-78
2022/10/04 07:37:52;;;;;;;21.08;9.57;;;;;;;9.42;100.00;100468.59;12252371;19;20003;-77
2022/10/04 07:41:58;;;;;;;17.83;9.38;;;;;;;9.58;100.00;100469.94;12263966;19;20375;-81
2022/10/04 07:46:38;;;;;;;19.42;8.25;;;;;;;9.61;100.00;100468.63;12204512;19;20050;-81
2022/10/04 07:51:19;;;;;;;16.85;8.13;;;;;;;9.65;100.00;100478.13;12223061;19;20018;-83
2022/10/04 07:55:54;;;;;;;18.77;8.35;;;;;;;9.80;100.00;100473.06;12197242;19;20011;-81
2022/10/04 08:00:10;;;;;;;15.75;7.47;;;;;;;9.96;100.00;100471.63;12219427;19;20002;-82
2022/10/04 08:04:27;;;;;;;19.05;7.38;;;;;;;10.12;100.00;100468.25;12199842;19;20034;-82
2022/10/04 08:08:42;;;;;;;17.33;8.43;;;;;;;10.28;100.00;100464.06;12221415;19;20018;-82
2022/10/04 08:13:04;;;;;;;16.42;8.45;;;;;;;10.56;100.00;100468.13;12220377;19;20023;-81
2022/10/04 08:17:29;;;;;;;17.00;7.80;;;;;;;10.77;100.00;100473.13;12194609;19;20010;-81
2022/10/04 08:21:44;;;;;;;16.98;7.47;;;;;;;11.07;100.00;100477.75;12220619;19;20042;-79
2022/10/04 08:26:21;;;;;;;24.13;9.00;;;;;;;11.36;100.00;100479.59;12200261;19;20066;-81
2022/10/04 08:30:24;;;;;;;20.45;8.35;;;;;;;11.59;100.00;100483.44;12222634;19;20011;-81
2022/10/04 08:34:54;;;;;;;20.93;7.10;;;;;;;11.88;100.00;100487.19;12235471;19;20014;-79
2022/10/04 08:38:58;;;;;;;15.10;6.78;;;;;;;12.06;100.00;100475.13;12259799;19;20031;-80
2022/10/04 08:43:42;;;;;;;19.83;6.85;;;;;;;12.38;100.00;100485.75;12257437;19;20006;-80
2022/10/04 08:47:53;;;;;;;17.58;6.75;;;;;;;12.69;100.00;100474.19;12160809;19;2004366;-79
2022/10/04 08:52:24;;;;;;;18.65;7.72;;;;;;;12.84;100.00;100475.56;12257287;19;20048;-78
2022/10/04 08:57:07;;;;;;;11.43;6.68;;;;;;;12.92;100.00;100484.31;12238112;19;20036;-79
2022/10/04 09:01:50;;;;;;;12.80;6.45;;;;;;;13.14;100.00;100497.41;12234066;19;20040;-79
2022/10/04 09:06:03;;;;;;;11.93;5.80;;;;;;;13.38;100.00;100498.13;12257005;19;20022;-81
2022/10/04 09:10:39;;;;;;;14.75;5.85;;;;;;;13.43;100.00;100489.91;12235702;19;20010;-79
2022/10/04 09:14:54;;;;;;;12.88;5.50;;;;;;;13.58;100.00;100483.78;12256027;19;20013;-81
2022/10/04 09:19:24;;;;;;;16.42;5.78;;;;;;;13.76;100.00;100466.03;12255649;19;20062;-79
2022/10/04 09:23:57;;;;;;;12.30;6.10;;;;;;;14.01;100.00;100468.31;12237766;19;20007;-81
2022/10/04 09:28:16;;;;;;;10.07;5.13;;;;;;;14.11;100.00;100468.47;12259941;19;20035;-80
2022/10/04 09:32:30;;;;;;;8.52;5.20;;;;;;;14.10;100.00;100467.63;12231453;19;20010;-80
2022/10/04 09:36:41;;;;;;;8.23;4.70;;;;;;;14.08;100.00;100468.97;12269199;19;20006;-82
2022/10/04 09:41:06;;;;;;;11.20;4.57;;;;;;;14.09;100.00;100471.47;12246112;19;20010;-81
2022/10/04 09:45:26;;;;;;;7.03;3.95;;;;;;;14.27;100.00;100472.25;12271492;19;20050;-80
2022/10/04 09:50:06;;;;;;;7.80;4.00;;;;;;;14.49;100.00;100477.81;12249358;19;20015;-81
2022/10/04 09:54:24;;;;;;;;;;;;;;;14.89;100.00;100474.66;12270837;19;20011;-80
2022/10/04 09:59:02;;;;;;;11.55;4.75;;;;;;;15.24;100.00;100473.31;12245441;19;19947;-82
2022/10/04 10:03:20;;;;;;;12.32;3.97;;;;;;;15.28;100.00;100477.22;12267394;19;20034;-81
2022/10/04 10:07:38;;;;;;;9.88;3.72;;;;;;;15.36;100.00;100470.34;12251370;19;20010;-80
2022/10/04 10:16:48;;;;;;;8.18;3.83;;;;;;;16.00;100.00;100463.84;12248149;19;20011;-80
2022/10/04 10:21:05;;;;;;;6.13;3.97;;;;;;;16.08;100.00;100466.13;12267171;19;20007;-81
2022/10/04 10:25:38;;;;;;;7.50;4.03;;;;;;;16.37;100.00;100456.22;12245788;19;20007;-81
2022/10/04 10:29:51;;;;;;;10.15;3.83;;;;;;;16.96;99.18;100462.53;12269928;19;20027;-80
2022/10/04 10:34:18;;;;;;;7.00;4.18;;;;;;;17.47;96.60;100459.75;12252667;19;20652;-83
2022/10/04 10:38:39;;;;;;;9.82;3.65;;;;;;;17.61;92.46;100457.22;12196177;19;20030;-83
2022/10/04 10:43:19;;;;;;;10.02;4.00;;;;;;;17.51;91.75;100449.72;12223538;19;20007;-83
2022/10/04 10:47:59;;;;;;;9.70;4.95;;;;;;;17.40;93.11;100448.03;12199690;19;20007;-82
2022/10/04 10:52:42;;;;;;;8.68;4.13;;;;;;;17.49;90.93;100454.72;12221479;19;20463;-83
2022/10/04 10:56:55;;;;;;;8.45;4.65;;;;;;;17.38;92.41;100453.91;12122427;19;2004971;-83
2022/10/04 11:01:24;;;;;;;8.20;4.35;;;;;;;17.11;91.88;100445.84;12221928;19;20011;-82
2022/10/04 11:05:37;;;;;;;7.78;4.13;;;;;;;17.07;92.41;100447.50;12199000;19;20058;-83
2022/10/04 11:10:03;;;;;;;11.63;4.30;;;;;;;17.33;92.10;100455.88;12219328;19;20010;-83
2022/10/04 11:14:48;;;;;;;10.27;5.45;;;;;;;16.94;91.10;100453.63;12197348;19;20405;-82
2022/10/04 11:19:09;;;;;;;7.47;4.28;;;;;;;16.96;92.10;100451.41;12216428;19;20028;-83
2022/10/04 11:23:14;;;;;;;10.63;4.82;;;;;;;17.34;90.57;100447.25;12197413;19;20006;-82
2022/10/04 11:27:27;;;;;;;16.38;4.82;;;;;;;17.76;88.73;100443.28;12220011;19;20021;-83
2022/10/04 11:31:50;;;;;;;12.57;5.30;;;;;;;17.94;87.02;100439.91;12192331;19;20546;-82
2022/10/04 11:36:06;;;;;;;;;;;;;;;18.34;88.44;100435.28;12219309;19;20049;-81
2022/10/04 11:40:17;;;;;;;13.35;4.82;;;;;;;18.97;86.69;100440.22;12196875;19;19911;-82
2022/10/04 11:44:58;;;;;;;13.13;5.85;;;;;;;19.56;82.47;100436.38;12217087;19;20006;-83
2022/10/04 11:49:13;;;;;;;8.25;5.40;;;;;;;20.02;82.74;100430.31;12219346;19;20539;-82
2022/10/04 11:53:33;;;;;;;13.07;5.15;;;;;;;20.38;78.19;100432.66;12194225;19;20899;-83
2022/10/04 11:57:53;;;;;;;9.15;4.97;;;;;;;21.00;74.85;100426.19;12216220;19;20037;-85
2022/10/04 12:02:08;;;;;;;7.90;5.28;;;;;;;21.35;71.72;100419.97;12192380;19;20007;-84
2022/10/04 12:06:19;;;;;;;13.23;5.50;;;;;;;21.57;69.41;100410.94;12217769;19;20013;-83
2022/10/04 12:10:22;;;;;;;10.50;4.47;;;;;;;22.03;69.31;100395.16;12213842;19;20007;-83
2022/10/04 12:14:41;;;;;;;9.85;4.97;;;;;;;22.70;65.95;100392.59;12215313;19;20026;-82
2022/10/04 12:18:46;;;;;;;6.90;4.20;;;;;;;23.13;65.81;100380.88;12216588;19;20023;-83
2022/10/04 12:23:04;;;;;;;9.05;5.00;;;;;;;23.41;60.42;100370.31;12190483;19;20034;-83
2022/10/04 12:27:41;;;;;;;8.43;5.00;;;;;;;23.99;59.77;100371.25;12217528;19;20479;-83
2022/10/04 12:31:48;;;;;;;10.80;4.95;;;;;;;24.43;59.46;100375.03;12190543;19;20025;-83
2022/10/04 12:35:50;;;;;;;8.98;4.40;;;;;;;24.90;56.32;100366.75;12218970;19;20029;-84
2022/10/04 12:39:58;;;;;;;9.60;4.57;;;;;;;25.02;56.91;100350.00;12242355;19;20010;-82
2022/10/04 12:44:15;;;;;;;6.00;4.10;;;;;;;25.30;55.74;100349.63;12253012;19;19995;-82
2022/10/04 12:48:26;;;;;;;7.97;4.07;;;;;;;25.37;52.50;100347.16;12226300;19;20074;-83
2022/10/04 12:52:41;;;;;;;9.00;4.40;;;;;;;25.76;51.61;100335.84;12191769;19;20471;-83
2022/10/04 12:56:56;;;;;;;6.40;4.07;;;;;;;25.51;50.38;100326.34;12213937;19;20066;-83
2022/10/04 13:01:15;;;;;;;8.07;4.57;;;;;;;24.25;52.93;100329.09;12217739;19;20022;-84
2022/10/04 13:05:50;;;;;;;7.82;3.65;;;;;;;23.06;54.86;100341.16;12195549;19;20007;-83
2022/10/04 13:10:07;;;;;;;7.50;3.80;;;;;;;22.36;56.86;100341.72;12212416;19;20006;-83
2022/10/04 13:14:54;;;;;;;7.70;4.20;;;;;;;21.72;58.84;100334.09;12197046;19;20095;-84
2022/10/04 13:19:11;;;;;;;11.45;5.22;;;;;;;21.15;60.72;100334.31;12239039;19;20054;-81
2022/10/04 13:23:27;;;;;;;5.15;3.45;;;;;;;21.56;60.59;100329.91;12243268;19;20003;-83
2022/10/04 13:27:59;;;;;;;7.72;4.25;;;;;;;21.76;61.09;100317.47;12259006;19;20015;-84
2022/10/04 13:32:20;;;;;;;5.53;3.33;;;;;;;21.70;61.44;100318.72;12195633;19;20108;-84
2022/10/04 13:37:02;;;;;;;7.85;3.75;;;;;;;21.53;61.50;100325.75;12218680;19;20023;-84
2022/10/04 13:41:45;;;;;;;7.90;4.30;;;;;;;20.73;63.62;100324.09;12196164;19;20483;-83
2022/10/04 13:45:58;;;;;;;7.00;4.53;;;;;;;20.21;65.09;100317.59;12220760;19;20007;-84
2022/10/04 13:50:11;;;;;;;6.15;4.13;;;;;;;19.84;65.46;100310.84;12196378;19;20010;-84
2022/10/04 13:58:47;;;;;;;9.27;4.60;;;;;;;19.34;69.53;100315.88;12196296;19;20763;-84
2022/10/04 14:03:26;;;;;;;8.73;4.90;;;;;;;19.28;69.86;100301.13;12216016;19;20034;-82
2022/10/04 14:07:49;;;;;;;7.93;4.45;;;;;;;19.24;69.81;100299.19;12193243;19;20031;-83
2022/10/04 14:12:20;;;;;;;9.35;4.72;;;;;;;19.15;70.28;100295.41;12213251;19;20014;-84
2022/10/04 14:17:04;;;;;;;10.10;4.55;;;;;;;19.11;71.78;100290.41;12194271;19;20007;-83
2022/10/04 14:21:46;;;;;;;9.13;4.75;;;;;;;19.03;73.38;100293.00;12217621;19;20007;-83
2022/10/04 14:26:08;;;;;;;9.85;4.47;;;;;;;19.02;73.53;100286.59;12203524;19;20034;-83
2022/10/04 14:30:48;;;;;;;9.00;4.57;;;;;;;19.36;72.93;100282.84;12224761;19;20010;-84
2022/10/04 14:35:01;;;;;;;9.27;4.50;;;;;;;19.43;72.94;100288.94;12200634;19;20487;-83
2022/10/04 14:39:24;;;;;;;8.77;4.38;;;;;;;19.57;72.57;100281.50;12221002;19;20217;-84
2022/10/04 14:43:28;;;;;;;;;;;;;;;19.70;71.93;100273.56;12203025;19;20218;-84
2022/10/04 14:47:50;;;;;;;7.72;4.47;;;;;;;20.11;70.74;100278.56;12227244;19;19925;-84
2022/10/04 14:52:22;;;;;;;7.53;4.22;;;;;;;20.45;69.85;100275.53;12218260;19;20002;-83
2022/10/04 14:56:45;;;;;;;6.30;3.88;;;;;;;20.61;69.17;100274.19;12198102;19;20083;-83
2022/10/04 15:01:00;;;;;;;6.05;4.03;;;;;;;20.58;68.92;100265.56;12220177;19;20003;-84
2022/10/04 15:05:43;;;;;;;7.88;4.22;;;;;;;20.38;69.06;100261.09;12227383;19;20054;-83
2022/10/04 15:09:46;;;;;;;;;;;;;;;20.16;69.89;100253.31;12256886;19;20006;-85
2022/10/04 15:14:03;;;;;;;7.73;4.10;;;;;;;20.00;69.70;100242.34;12203704;19;19970;-86
2022/10/04 15:18:26;;;;;;;8.18;3.65;;;;;;;19.85;70.44;100231.41;12220958;19;20014;-84
2022/10/04 15:22:59;;;;;;;7.43;3.90;;;;;;;19.76;70.35;100247.19;12201609;19;21692;-85
2022/10/04 15:27:33;;;;;;;7.18;3.78;;;;;;;19.64;70.78;100246.75;12225450;19;20024;-85
2022/10/04 15:31:49;;;;;;;6.20;3.50;;;;;;;19.39;71.07;100245.94;12199553;19;20062;-84
2022/10/04 15:35:56;;;;;;;6.90;3.80;;;;;;;19.15;71.33;100253.50;12227472;19;20033;-84
2022/10/04 15:40:02;;;;;;;6.40;3.72;;;;;;;19.01;72.18;100242.22;12225829;19;20821;-85
2022/10/04 15:44:10;;;;;;;7.10;3.30;;;;;;;18.90;72.34;100242.31;12205010;19;20022;-84
2022/10/04 15:48:31;;;;;;;10.90;3.38;;;;;;;18.80;72.55;100233.19;12226060;19;20020;-84
2022/10/04 15:52:56;;;;;;;5.28;3.22;;;;;;;18.63;72.95;100230.81;12200454;19;20025;-85
2022/10/04 15:57:37;;;;;;;6.65;3.35;;;;;;;18.49;73.87;100230.66;12224527;19;20081;-83
2022/10/04 16:02:20;;;;;;;7.28;3.53;;;;;;;18.37;74.75;100219.88;12202646;19;20050;-83
2022/10/04 16:06:27;;;;;;;5.47;3.17;;;;;;;18.22;75.67;100220.81;12225764;19;20014;-85
2022/10/04 16:11:24;;;;;;;9.82;3.25;;;;;;;18.06;77.81;100221.25;12197994;19;20023;-84
2022/10/04 16:15:40;;;;;;;4.68;2.92;;;;;;;17.89;77.25;100227.22;12222726;19;20014;-84
2022/10/04 16:20:22;;;;;;;5.78;3.15;;;;;;;17.79;77.40;100218.88;12200529;19;20011;-85
2022/10/04 16:24:39;;;;;;;10.03;3.23;;;;;;;17.65;78.54;100213.94;12213592;19;20015;-85
2022/10/04 16:29:10;;;;;;;9.07;3.45;;;;;;;17.48;79.46;100207.88;12200079;19;20090;-84
2022/10/04 16:33:31;;;;;;;10.60;3.55;;;;;;;17.26;81.90;100211.88;12217286;19;20030;-84
2022/10/04 16:37:54;;;;;;;11.35;4.22;;;;;;;17.00;83.40;100207.53;12201182;19;20047;-84
2022/10/04 16:41:58;;;;;;;7.68;3.88;;;;;;;16.72;84.83;100204.22;12213792;19;20095;-84
2022/10/04 16:46:24;;;;;;;9.23;3.65;;;;;;;16.45;87.31;100193.41;12216255;19;20066;-84
2022/10/04 16:50:47;;;;;;;8.07;3.05;;;;;;;16.23;88.98;100215.94;12194244;19;20464;-85
2022/10/04 16:55:02;;;;;;;;;;;;;;;15.98;89.58;100213.16;12216243;19;20467;-84
2022/10/04 16:59:10;;;;;;;10.13;3.78;;;;;;;15.75;90.94;100220.88;12199646;19;19926;-84
2022/10/04 17:03:48;;;;;;;15.88;3.60;;;;;;;15.49;94.10;100217.16;12218825;19;20468;-85
2022/10/04 17:08:13;;;;;;;11.48;3.55;;;;;;;15.27;95.37;100214.56;12195931;19;20017;-85
2022/10/04 17:12:46;;;;;;;9.00;3.80;;;;;;;15.08;96.88;100221.69;12220193;19;20002;-83
2022/10/04 17:16:57;;;;;;;12.20;3.85;;;;;;;14.89;97.55;100221.31;12198104;19;20014;-84
2022/10/04 17:21:04;;;;;;;21.90;4.32;;;;;;;14.75;98.69;100229.25;12217685;19;20089;-84
2022/10/04 17:25:20;;;;;;;8.43;3.65;;;;;;;14.61;100.00;100239.16;12214933;19;20018;-85
2022/10/04 17:29:46;;;;;;;10.02;3.55;;;;;;;14.48;100.00;100241.25;12195611;19;20007;-85
2022/10/04 17:34:11;;;;;;;8.88;3.60;;;;;;;14.38;100.00;100245.88;12214324;19;20021;-84
2022/10/04 17:38:25;;;;;;;9.82;3.90;;;;;;;14.25;100.00;100248.00;12194323;19;20026;-83
2022/10/04 17:42:51;;;;;;;9.52;4.00;;;;;;;14.17;100.00;100250.41;12218559;19;20073;-85
2022/10/04 17:47:11;;;;;;;11.63;4.10;;;;;;;14.10;100.00;100245.09;12215966;19;20014;-82
2022/10/04 17:56:03;;;;;;;12.88;4.32;;;;;;;13.96;100.00;100252.97;12214637;19;20011;-84
2022/10/04 18:00:14;;;;;;;11.80;3.80;;;;;;;13.91;100.00;100256.53;12216391;19;20003;-84
2022/10/04 18:04:29;;;;;;;11.60;4.38;;;;;;;13.86;100.00;100263.94;12223249;19;20356;-83
2022/10/04 18:09:22;;;;;;;10.60;4.07;;;;;;;13.80;100.00;100270.53;12242652;19;20021;-84
2022/10/04 18:13:37;;;;;;;10.10;3.75;;;;;;;13.72;100.00;100266.31;12219618;19;20126;-86
2022/10/04 18:17:48;;;;;;;8.75;3.45;;;;;;;13.67;100.00;100269.84;12230351;19;20340;-87
2022/10/04 18:21:55;;;;;;;11.32;3.22;;;;;;;13.66;100.00;100278.41;12227268;19;20010;-87
2022/10/04 18:25:59;;;;;;;9.20;3.60;;;;;;;13.64;100.00;100280.59;12205133;19;20047;-87
2022/10/04 18:30:13;;;;;;;9.55;3.53;;;;;;;13.58;100.00;100278.88;12227093;19;20344;-87
2022/10/04 18:34:15;;;;;;;11.65;3.47;;;;;;;13.54;100.00;100278.53;12202713;19;20091;-87
2022/10/04 18:38:26;;;;;;;9.65;3.88;;;;;;;13.51;100.00;100272.69;12224527;19;20011;-86
2022/10/04 18:42:44;;;;;;;8.63;3.33;;;;;;;13.47;100.00;100261.28;12225262;19;20033;-87
2022/10/04 18:46:53;;;;;;;8.85;3.75;;;;;;;13.43;100.00;100257.38;12202107;19;20014;-87
2022/10/04 18:51:22;;;;;;;8.68;3.97;;;;;;;13.37;100.00;100261.16;12224148;19;20042;-87
2022/10/04 18:55:57;;;;;;;8.73;4.05;;;;;;;13.31;100.00;100254.72;12202475;19;20007;-86
2022/10/04 19:05:29;;;;;;;8.68;3.50;;;;;;;13.19;100.00;100265.06;12200897;19;20013;-87
2022/10/04 19:09:57;;;;;;;18.40;4.57;;;;;;;13.14;100.00;100273.28;12223119;19;20006;-87
2022/10/04 19:14:28;;;;;;;14.82;3.92;;;;;;;13.10;100.00;100283.19;12204912;19;20475;-86
2022/10/04 19:18:49;;;;;;;11.48;4.25;;;;;;;13.05;100.00;100294.16;12225752;19;20010;-86
2022/10/04 19:23:19;;;;;;;10.32;4.85;;;;;;;12.98;100.00;100289.66;12202118;19;20502;-86
2022/10/04 19:27:36;;;;;;;12.45;4.20;;;;;;;12.94;100.00;100299.56;12218663;19;20612;-87
2022/10/04 19:32:02;;;;;;;12.38;4.65;;;;;;;12.90;100.00;100301.16;12199563;19;20021;-87
2022/10/04 19:36:19;;;;;;;8.40;4.80;;;;;;;12.86;100.00;100304.69;12224613;19;20468;-86
2022/10/04 19:40:33;;;;;;;12.65;4.82;;;;;;;12.83;100.00;100308.78;12195058;19;20011;-87
2022/10/04 19:45:23;;;;;;;12.35;4.95;;;;;;;12.78;100.00;100308.69;12222311;19;20031;-87
2022/10/04 19:49:40;;;;;;;11.40;4.57;;;;;;;12.75;100.00;100311.97;12196227;19;20354;-87
2022/10/04 19:53:44;;;;;;;10.20;4.95;;;;;;;12.70;100.00;100315.50;12221207;19;20022;-87
2022/10/04 19:57:57;;;;;;;11.32;5.53;;;;;;;12.70;100.00;100317.41;12221425;19;20775;-87